createdAt,value
2018-01-08T00:01:00.065Z,3.80
2018-01-08T00:02:05.214Z,3.45
2018-01-08T00:03:09.642Z,2.83
2018-01-08T00:04:14.043Z,2.97
2018-01-08T00:05:18.232Z,3.35
2018-01-08T00:06:23.222Z,3.00
2018-01-08T00:07:27.603Z,2.15
2018-01-08T00:08:33.105Z,5.25
2018-01-08T00:09:37.474Z,2.55
2018-01-08T00:10:41.826Z,3.35
2018-01-08T00:11:46.076Z,3.75
2018-01-08T00:12:50.302Z,2.67
2018-01-08T00:13:54.522Z,5.53
2018-01-08T00:14:58.728Z,2.67
2018-01-08T00:16:03.882Z,4.55
2018-01-08T00:17:09.082Z,6.65
2018-01-08T00:18:13.497Z,3.12
2018-01-08T00:19:17.744Z,4.65
2018-01-08T00:20:22.125Z,5.53
2018-01-08T00:21:26.317Z,6.95
2018-01-08T00:22:32.094Z,7.68
2018-01-08T00:23:37.044Z,8.07
2018-01-08T00:24:41.727Z,5.32
2018-01-08T00:25:45.978Z,5.32
2018-01-08T00:26:50.202Z,11.60
2018-01-08T00:27:54.398Z,5.30
2018-01-08T00:28:58.613Z,6.25
2018-01-08T00:30:03.482Z,2.83
2018-01-08T00:31:08.130Z,4.20
2018-01-08T00:32:12.733Z,4.65
2018-01-08T00:33:16.946Z,5.10
2018-01-08T00:34:21.124Z,3.87
2018-01-08T00:35:25.368Z,3.90
2018-01-08T00:36:29.896Z,3.40
2018-01-08T00:37:34.377Z,7.95
2018-01-08T00:38:39.949Z,5.15
2018-01-08T00:39:45.216Z,4.15
2018-01-08T00:40:49.451Z,5.00
2018-01-08T00:41:53.759Z,5.75
2018-01-08T00:42:57.953Z,6.93
2018-01-08T00:44:03.145Z,7.30
2018-01-08T00:45:07.881Z,4.37
2018-01-08T00:46:12.124Z,2.95
2018-01-08T00:47:16.489Z,4.28
2018-01-08T00:48:21.477Z,3.80
2018-01-08T00:49:25.754Z,3.10
2018-01-08T00:50:30.240Z,4.50
2018-01-08T00:51:36.134Z,5.05
2018-01-08T00:52:40.482Z,7.18
2018-01-08T00:53:45.487Z,3.72
2018-01-08T00:54:49.731Z,6.30
2018-01-08T00:55:54.760Z,5.35
2018-01-08T00:57:00.656Z,4.87
2018-01-08T00:58:05.275Z,3.58
2018-01-08T00:59:09.752Z,4.85
2018-01-08T01:00:14.171Z,3.95
2018-01-08T01:01:19.154Z,3.92
2018-01-08T01:02:23.336Z,4.95
2018-01-08T01:03:27.611Z,4.60
2018-01-08T01:04:33.113Z,5.90
2018-01-08T01:05:38.256Z,5.05
2018-01-08T01:06:42.504Z,5.78
2018-01-08T01:07:46.721Z,6.12
2018-01-08T01:08:51.714Z,4.75
2018-01-08T01:09:55.901Z,5.22
2018-01-08T01:11:00.619Z,3.40
2018-01-08T01:12:05.099Z,7.85
2018-01-08T01:13:10.470Z,3.97
2018-01-08T01:14:14.959Z,4.78
2018-01-08T01:15:19.933Z,3.75
2018-01-08T01:16:24.176Z,4.50
2018-01-08T01:17:30.108Z,4.40
2018-01-08T01:18:35.115Z,11.25
2018-01-08T01:19:40.308Z,14.52
2018-01-08T01:20:45.302Z,6.95
2018-01-08T01:21:49.532Z,4.45
2018-01-08T01:22:53.745Z,3.78
2018-01-08T01:23:57.977Z,6.93
2018-01-08T01:25:03.448Z,5.97
2018-01-08T01:26:08.138Z,5.15
2018-01-08T01:27:12.855Z,4.97
2018-01-08T01:28:17.863Z,8.50
2018-01-08T01:29:22.043Z,5.78
2018-01-08T01:30:26.234Z,10.13
2018-01-08T01:31:31.668Z,6.60
2018-01-08T01:32:36.414Z,6.25
2018-01-08T01:33:40.829Z,9.30
2018-01-08T01:34:45.036Z,5.50
2018-01-08T01:35:49.241Z,6.07
2018-01-08T01:36:53.415Z,6.50
2018-01-08T01:37:58.674Z,4.20
2018-01-08T01:39:04.714Z,7.50
2018-01-08T01:40:09.912Z,6.57
2018-01-08T01:41:14.176Z,5.85
2018-01-08T01:42:18.404Z,8.65
2018-01-08T01:43:22.631Z,6.55
2018-01-08T01:44:27.006Z,7.72
2018-01-08T01:45:31.448Z,7.12
2018-01-08T01:46:37.361Z,8.15
2018-01-08T01:47:42.101Z,8.13
2018-01-08T01:48:46.390Z,6.97
2018-01-08T01:49:51.369Z,7.60
2018-01-08T01:50:55.565Z,10.55
2018-01-08T01:52:00.184Z,7.15
2018-01-08T01:53:04.560Z,8.50
2018-01-08T01:54:10.080Z,8.13
2018-01-08T01:55:15.776Z,10.73
2018-01-08T01:56:19.980Z,9.15
2018-01-08T01:57:24.198Z,8.57
2018-01-08T01:58:28.380Z,9.38
2018-01-08T01:59:33.617Z,6.18
2018-01-08T02:00:37.886Z,8.48
2018-01-08T02:01:42.129Z,7.93
2018-01-08T02:02:47.135Z,9.10
2018-01-08T02:03:51.353Z,7.10
2018-01-08T02:04:55.669Z,7.25
2018-01-08T02:06:00.236Z,6.70
2018-01-08T02:07:04.522Z,8.40
2018-01-08T02:08:09.580Z,7.70
2018-01-08T02:09:13.821Z,8.13
2018-01-08T02:10:18.029Z,6.70
2018-01-08T02:11:22.217Z,9.30
2018-01-08T02:12:26.396Z,6.28
2018-01-08T02:13:31.564Z,7.15
2018-01-08T02:14:35.933Z,7.18
2018-01-08T02:15:40.925Z,9.05
2018-01-08T02:16:45.127Z,10.07
2018-01-08T02:17:49.363Z,8.32
2018-01-08T02:18:53.590Z,9.20
2018-01-08T02:19:57.866Z,8.90
2018-01-08T02:21:02.517Z,7.93
2018-01-08T02:22:07.680Z,9.88
2018-01-08T02:23:12.132Z,8.30
2018-01-08T02:24:16.362Z,14.13
2018-01-08T02:25:20.724Z,9.88
2018-01-08T02:26:25.756Z,11.18
2018-01-08T02:27:30.143Z,8.75
2018-01-08T02:28:35.850Z,10.02
2018-01-08T02:29:40.244Z,9.32
2018-01-08T02:30:44.658Z,11.05
2018-01-08T02:31:48.960Z,10.68
2018-01-08T02:32:53.150Z,6.65
2018-01-08T02:33:58.196Z,9.00
2018-01-08T02:35:04.467Z,8.68
2018-01-08T02:36:09.375Z,11.88
2018-01-08T02:37:14.345Z,8.88
2018-01-08T02:38:18.558Z,9.48
2018-01-08T02:39:22.781Z,6.70
2018-01-08T02:40:26.974Z,11.90
2018-01-08T02:41:32.213Z,7.87
2018-01-08T02:42:36.557Z,13.23
2018-01-08T02:43:41.716Z,9.20
2018-01-08T02:44:46.733Z,11.60
2018-01-08T02:45:51.689Z,9.77
2018-01-08T02:46:55.920Z,7.97
2018-01-08T02:48:00.754Z,8.52
2018-01-08T02:49:06.222Z,9.65
2018-01-08T02:50:10.777Z,8.68
2018-01-08T02:51:15.032Z,12.27
2018-01-08T02:52:19.234Z,9.52
2018-01-08T02:53:23.514Z,10.10
2018-01-08T02:54:27.699Z,6.80
2018-01-08T02:55:33.918Z,10.13
2018-01-08T02:56:38.265Z,9.60
2018-01-08T02:57:42.792Z,9.93
2018-01-08T02:58:47.808Z,10.20
2018-01-08T02:59:52.034Z,11.35
2018-01-08T03:00:56.259Z,10.65
2018-01-08T03:02:01.603Z,19.48
2018-01-08T03:03:06.157Z,10.90
2018-01-08T03:04:10.506Z,11.55
2018-01-08T03:05:14.790Z,10.32
2018-01-08T03:06:18.979Z,13.32
2018-01-08T03:07:23.147Z,9.90
2018-01-08T03:08:27.392Z,20.23
2018-01-08T03:09:32.040Z,12.00
2018-01-08T03:10:36.439Z,11.57
2018-01-08T03:11:41.044Z,10.90
2018-01-08T03:12:45.299Z,11.10
2018-01-08T03:13:49.548Z,9.07
2018-01-08T03:14:54.560Z,13.75
2018-01-08T03:15:58.747Z,9.05
2018-01-08T03:17:05.023Z,8.77
2018-01-08T03:18:10.680Z,11.90
2018-01-08T03:19:15.636Z,9.85
2018-01-08T03:20:19.918Z,11.52
2018-01-08T03:21:24.138Z,11.35
2018-01-08T03:22:29.259Z,11.77
2018-01-08T03:23:35.264Z,9.02
2018-01-08T03:24:39.630Z,13.40
2018-01-08T03:25:44.071Z,16.40
2018-01-08T03:26:48.408Z,11.55
2018-01-08T03:27:52.640Z,12.65
2018-01-08T03:28:56.835Z,12.18
2018-01-08T03:30:02.107Z,10.95
2018-01-08T03:31:07.294Z,14.63
2018-01-08T03:32:11.875Z,16.17
2018-01-08T03:33:16.123Z,13.60
2018-01-08T03:34:20.341Z,11.25
2018-01-08T03:35:24.566Z,23.15
2018-01-08T03:36:29.875Z,11.50
2018-01-08T03:37:35.363Z,12.23
2018-01-08T03:38:40.846Z,9.90
2018-01-08T03:39:45.093Z,12.00
2018-01-08T03:40:49.286Z,11.90
2018-01-08T03:41:53.522Z,14.48
2018-01-08T03:42:57.744Z,12.37
2018-01-08T03:44:03.812Z,12.48
2018-01-08T03:45:08.276Z,11.52
2018-01-08T03:46:12.858Z,14.75
2018-01-08T03:47:17.843Z,11.25
2018-01-08T03:48:22.121Z,9.50
2018-01-08T03:49:26.325Z,15.02
2018-01-08T03:50:32.406Z,12.43
2018-01-08T03:51:36.822Z,11.88
2018-01-08T03:52:41.831Z,11.43
2018-01-08T03:53:46.141Z,15.90
2018-01-08T03:54:50.336Z,14.87
2018-01-08T03:55:55.284Z,10.93
2018-01-08T03:57:00.816Z,16.37
2018-01-08T03:58:05.396Z,14.32
2018-01-08T03:59:11.202Z,13.30
2018-01-08T04:00:16.289Z,15.82
2018-01-08T04:01:21.979Z,13.65
2018-01-08T04:02:26.242Z,13.45
2018-01-08T04:03:30.806Z,15.52
2018-01-08T04:04:35.369Z,12.43
2018-01-08T04:05:39.677Z,14.90
2018-01-08T04:06:43.951Z,13.40
2018-01-08T04:07:48.204Z,16.65
2018-01-08T04:08:52.435Z,12.85
2018-01-08T04:09:57.392Z,12.43
2018-01-08T04:11:02.444Z,12.20
2018-01-08T04:12:07.343Z,13.35
2018-01-08T04:13:11.770Z,14.45
2018-01-08T04:14:15.981Z,15.57
2018-01-08T04:15:20.179Z,12.25
2018-01-08T04:16:25.939Z,13.50
2018-01-08T04:17:30.310Z,10.68
2018-01-08T04:18:35.198Z,13.23
2018-01-08T04:19:39.576Z,18.25
2018-01-08T04:20:43.825Z,11.65
2018-01-08T04:21:48.004Z,12.73
2018-01-08T04:22:52.977Z,12.55
2018-01-08T04:23:57.301Z,16.33
2018-01-08T04:25:02.544Z,17.35
2018-01-08T04:26:07.125Z,16.08
2018-01-08T04:27:11.424Z,17.48
2018-01-08T04:28:15.653Z,12.48
2018-01-08T04:29:19.890Z,11.07
2018-01-08T04:30:24.093Z,13.10
2018-01-08T04:31:28.374Z,15.18
2018-01-08T04:32:33.565Z,14.05
2018-01-08T04:33:38.191Z,11.38
2018-01-08T04:34:43.494Z,10.57
2018-01-08T04:35:47.750Z,12.13
2018-01-08T04:36:52.784Z,12.43
2018-01-08T04:37:57.769Z,11.52
2018-01-08T04:39:02.597Z,15.88
2018-01-08T04:40:07.775Z,14.50
2018-01-08T04:41:12.105Z,11.80
2018-01-08T04:42:16.360Z,11.77
2018-01-08T04:43:20.585Z,15.00
2018-01-08T04:44:24.829Z,14.10
2018-01-08T04:45:29.567Z,17.08
2018-01-08T04:46:34.833Z,13.93
2018-01-08T04:47:39.456Z,12.63
2018-01-08T04:48:44.461Z,14.10
2018-01-08T04:49:48.653Z,10.82
2018-01-08T04:50:52.871Z,12.50
2018-01-08T04:51:57.129Z,16.08
2018-01-08T04:53:02.404Z,13.82
2018-01-08T04:54:07.180Z,14.68
2018-01-08T04:55:12.405Z,16.40
2018-01-08T04:56:16.791Z,14.73
2018-01-08T04:57:21.026Z,17.17
2018-01-08T04:58:25.212Z,11.30
2018-01-08T04:59:31.722Z,10.55
2018-01-08T05:00:37.477Z,12.00
2018-01-08T05:01:42.072Z,14.98
2018-01-08T05:02:46.319Z,12.82
2018-01-08T05:03:50.970Z,20.70
2018-01-08T05:04:55.194Z,13.75
2018-01-08T05:05:59.456Z,11.52
2018-01-08T05:07:05.957Z,14.93
2018-01-08T05:08:11.629Z,17.05
2018-01-08T05:09:16.026Z,18.58
2018-01-08T05:10:20.324Z,12.43
2018-01-08T05:11:24.542Z,17.50
2018-01-08T05:12:28.823Z,13.55
2018-01-08T05:13:33.275Z,13.18
2018-01-08T05:14:38.466Z,12.50
2018-01-08T05:15:42.842Z,13.77
2018-01-08T05:16:47.062Z,17.58
2018-01-08T05:17:51.294Z,17.87
2018-01-08T05:18:55.541Z,17.20
2018-01-08T05:20:01.660Z,14.80
2018-01-08T05:21:06.332Z,15.85
2018-01-08T05:22:10.892Z,12.73
2018-01-08T05:23:15.260Z,12.88
2018-01-08T05:24:19.495Z,14.13
2018-01-08T05:25:23.947Z,17.10
2018-01-08T05:26:28.183Z,17.62
2018-01-08T05:27:34.321Z,17.37
2018-01-08T05:28:39.741Z,16.70
2018-01-08T05:29:44.782Z,15.20
2018-01-08T05:30:48.985Z,14.68
2018-01-08T05:31:53.339Z,13.75
2018-01-08T05:32:57.529Z,13.50
2018-01-08T05:34:02.914Z,15.98
2018-01-08T05:35:07.277Z,15.82
2018-01-08T05:36:12.513Z,14.75
2018-01-08T05:37:16.759Z,15.73
2018-01-08T05:38:20.959Z,13.93
2018-01-08T05:39:26.059Z,13.62
2018-01-08T05:40:30.416Z,15.82
2018-01-08T05:41:35.962Z,15.10
2018-01-08T05:42:40.649Z,13.98
2018-01-08T05:43:44.993Z,14.13
2018-01-08T05:44:49.296Z,16.00
2018-01-08T05:45:53.492Z,18.50
2018-01-08T05:47:02.498Z,13.32
2018-01-08T05:48:07.290Z,15.93
2018-01-08T05:49:11.648Z,15.13
2018-01-08T05:50:15.926Z,15.73
2018-01-08T05:51:20.214Z,16.10
2018-01-08T05:52:24.458Z,16.25
2018-01-08T05:53:30.214Z,13.70
2018-01-08T05:54:36.793Z,15.02
2018-01-08T05:55:41.136Z,14.98
2018-01-08T05:56:46.208Z,14.52
2018-01-08T05:57:50.447Z,12.13
2018-01-08T05:58:54.687Z,16.35
2018-01-08T05:59:59.000Z,15.35
2018-01-08T06:01:03.646Z,14.63
2018-01-08T06:02:07.955Z,13.60
2018-01-08T06:03:12.259Z,14.80
2018-01-08T06:04:16.492Z,14.20
2018-01-08T06:05:20.788Z,11.70
2018-01-08T06:06:25.766Z,15.63
2018-01-08T06:07:30.899Z,26.83
2018-01-08T06:08:36.289Z,12.63
2018-01-08T06:09:40.896Z,15.05
2018-01-08T06:10:45.137Z,14.95
2018-01-08T06:11:49.328Z,16.30
2018-01-08T06:12:53.537Z,12.85
2018-01-08T06:13:57.735Z,18.65
2018-01-08T06:15:04.852Z,15.68
2018-01-08T06:16:09.297Z,18.60
2018-01-08T06:17:14.989Z,14.13
2018-01-08T06:18:19.180Z,13.73
2018-01-08T06:19:24.190Z,14.18
2018-01-08T06:20:28.424Z,14.80
2018-01-08T06:21:33.665Z,15.32
2018-01-08T06:22:37.971Z,17.10
2018-01-08T06:23:42.328Z,17.23
2018-01-08T06:24:46.548Z,16.20
2018-01-08T06:25:50.761Z,15.48
2018-01-08T06:26:55.124Z,17.60
2018-01-08T06:27:59.443Z,17.20
2018-01-08T06:29:05.014Z,16.67
2018-01-08T06:30:10.199Z,15.75
2018-01-08T06:31:15.342Z,16.98
2018-01-08T06:32:20.296Z,15.15
2018-01-08T06:33:24.505Z,19.37
2018-01-08T06:34:28.825Z,22.00
2018-01-08T06:35:34.216Z,18.80
2018-01-08T06:36:38.532Z,17.62
2018-01-08T06:37:43.546Z,16.98
2018-01-08T06:38:47.764Z,18.12
2018-01-08T06:39:51.977Z,17.25
2018-01-08T06:40:57.022Z,16.35
2018-01-08T06:42:02.563Z,17.80
2018-01-08T06:43:07.198Z,17.00
2018-01-08T06:44:11.906Z,18.17
2018-01-08T06:45:16.158Z,16.90
2018-01-08T06:46:20.405Z,14.82
2018-01-08T06:47:24.758Z,19.30
2018-01-08T06:48:29.074Z,19.98
2018-01-08T06:49:33.937Z,16.23
2018-01-08T06:50:38.444Z,17.30
2018-01-08T06:51:42.785Z,21.65
2018-01-08T06:52:47.119Z,17.55
2018-01-08T06:53:52.111Z,17.60
2018-01-08T06:54:56.297Z,17.48
2018-01-08T06:56:00.819Z,19.05
2018-01-08T06:57:06.718Z,18.60
2018-01-08T06:58:15.163Z,24.40
2018-01-08T06:59:19.398Z,21.35
2018-01-08T07:00:23.622Z,15.70
2018-01-08T07:01:27.858Z,23.25
2018-01-08T07:02:32.751Z,21.85
2018-01-08T07:03:37.670Z,19.40
2018-01-08T07:04:42.085Z,17.77
2018-01-08T07:05:46.288Z,19.00
2018-01-08T07:06:50.496Z,24.37
2018-01-08T07:07:54.733Z,19.83
2018-01-08T07:08:59.098Z,18.83
2018-01-08T07:10:04.165Z,26.58
2018-01-08T07:11:09.176Z,19.08
2018-01-08T07:12:13.594Z,27.13
2018-01-08T07:13:17.819Z,18.10
2018-01-08T07:14:22.107Z,24.95
2018-01-08T07:15:26.346Z,21.92
2018-01-08T07:16:31.283Z,19.42
2018-01-08T07:17:35.968Z,21.48
2018-01-08T07:18:41.113Z,20.27
2018-01-08T07:19:45.407Z,18.50
2018-01-08T07:20:49.684Z,23.35
2018-01-08T07:21:53.900Z,21.48
2018-01-08T07:22:58.102Z,21.40
2018-01-08T07:24:04.119Z,19.17
2018-01-08T07:25:09.856Z,18.02
2018-01-08T07:26:14.157Z,21.55
2018-01-08T07:27:18.388Z,19.10
2018-01-08T07:28:22.618Z,18.02
2018-01-08T07:29:26.875Z,20.23
2018-01-08T07:30:32.429Z,20.73
2018-01-08T07:31:37.808Z,24.10
2018-01-08T07:32:42.072Z,20.42
2018-01-08T07:33:46.334Z,20.42
2018-01-08T07:34:50.575Z,15.50
2018-01-08T07:35:54.822Z,18.17
2018-01-08T07:36:59.221Z,16.37
2018-01-08T07:38:04.175Z,17.70
2018-01-08T07:39:08.511Z,17.15
2018-01-08T07:40:12.765Z,25.15
2018-01-08T07:41:17.766Z,17.58
2018-01-08T07:42:22.006Z,19.70
2018-01-08T07:43:27.020Z,21.20
2018-01-08T07:45:36.153Z,23.58
2018-01-08T07:46:40.497Z,24.50
2018-01-08T07:47:44.717Z,18.77
2018-01-08T07:48:48.986Z,25.60
2018-01-08T07:49:53.314Z,19.45
2018-01-08T07:50:57.547Z,20.42
2018-01-08T07:52:02.409Z,26.45
2018-01-08T07:53:07.045Z,21.35
2018-01-08T07:54:12.015Z,20.67
2018-01-08T07:55:16.215Z,20.33
2018-01-08T07:56:20.460Z,26.52
2018-01-08T07:57:24.703Z,20.70
2018-01-08T07:58:28.940Z,19.37
2018-01-08T07:59:35.404Z,20.98
2018-01-08T08:00:40.163Z,18.48
2018-01-08T08:01:44.575Z,19.95
2018-01-08T08:02:48.816Z,20.02
2018-01-08T08:03:53.038Z,23.35
2018-01-08T08:04:57.266Z,19.40
2018-01-08T08:06:02.251Z,20.17
2018-01-08T08:07:08.395Z,22.25
2018-01-08T08:08:12.829Z,19.77
2018-01-08T08:09:17.024Z,19.98
2018-01-08T08:10:21.204Z,19.83
2018-01-08T08:11:25.434Z,18.87
2018-01-08T08:12:30.768Z,21.70
2018-01-08T08:13:35.505Z,23.87
2018-01-08T08:14:40.206Z,23.35
2018-01-08T08:15:44.750Z,19.25
2018-01-08T08:16:49.038Z,23.25
2018-01-08T08:17:54.030Z,16.50
2018-01-08T08:19:00.463Z,16.73
2018-01-08T08:20:05.328Z,21.83
2018-01-08T08:21:09.694Z,19.60
2018-01-08T08:22:13.942Z,16.52
2018-01-08T08:23:18.322Z,20.92
2018-01-08T08:24:22.554Z,24.12
2018-01-08T08:25:26.786Z,20.98
2018-01-08T08:26:32.146Z,20.10
2018-01-08T08:27:37.044Z,28.30
2018-01-08T08:28:41.710Z,22.40
2018-01-08T08:29:45.959Z,21.62
2018-01-08T08:30:50.188Z,29.10
2018-01-08T08:31:54.417Z,19.80
2018-01-08T08:32:58.665Z,28.20
2018-01-08T08:34:05.041Z,18.20
2018-01-08T08:35:09.657Z,19.27
2018-01-08T08:36:14.012Z,21.55
2018-01-08T08:37:18.213Z,22.33
2018-01-08T08:38:22.420Z,19.70
2018-01-08T08:39:26.630Z,19.85
2018-01-08T08:40:31.514Z,23.70
2018-01-08T08:41:36.527Z,20.33
2018-01-08T08:42:41.636Z,20.37
2018-01-08T08:43:46.620Z,19.40
2018-01-08T08:44:50.862Z,19.80
2018-01-08T08:45:55.048Z,23.58
2018-01-08T08:46:59.271Z,24.23
2018-01-08T08:48:04.450Z,18.75
2018-01-08T08:49:09.600Z,19.90
2018-01-08T08:50:14.231Z,18.67
2018-01-08T08:51:18.414Z,20.90
2018-01-08T08:52:23.412Z,21.55
2018-01-08T08:53:27.596Z,19.83
2018-01-08T08:54:32.430Z,21.25
2018-01-08T08:55:37.594Z,21.17
2018-01-08T08:56:42.925Z,23.50
2018-01-08T08:57:47.285Z,26.98
2018-01-08T08:58:52.601Z,20.08
2018-01-08T08:59:57.590Z,20.80
2018-01-08T09:01:02.357Z,19.90
2018-01-08T09:02:07.604Z,22.70
2018-01-08T09:03:12.020Z,20.08
2018-01-08T09:04:16.258Z,28.67
2018-01-08T09:05:20.475Z,20.90
2018-01-08T09:06:25.168Z,23.30
2018-01-08T09:07:30.119Z,20.85
2018-01-08T09:08:35.749Z,17.98
2018-01-08T09:09:40.093Z,19.60
2018-01-08T09:10:44.386Z,24.50
2018-01-08T09:11:48.628Z,19.08
2018-01-08T09:12:53.040Z,19.37
2018-01-08T09:13:57.318Z,19.42
2018-01-08T09:15:02.045Z,18.75
2018-01-08T09:16:08.487Z,19.15
2018-01-08T09:17:13.051Z,18.85
2018-01-08T09:18:17.276Z,20.83
2018-01-08T09:19:21.539Z,25.40
2018-01-08T09:20:25.753Z,18.30
2018-01-08T09:21:30.668Z,21.73
2018-01-08T09:22:35.404Z,16.08
2018-01-08T09:23:41.005Z,22.33
2018-01-08T09:24:46.075Z,22.23
2018-01-08T09:25:50.320Z,18.25
2018-01-08T09:26:54.593Z,21.80
2018-01-08T09:27:58.818Z,18.60
2018-01-08T09:29:04.364Z,18.15
2018-01-08T09:30:08.689Z,20.27
2018-01-08T09:31:13.191Z,14.87
2018-01-08T09:32:17.418Z,17.58
2018-01-08T09:33:21.659Z,19.80
2018-01-08T09:34:25.845Z,18.45
2018-01-08T09:35:30.214Z,19.75
2018-01-08T09:36:34.655Z,20.45
2018-01-08T09:37:39.481Z,18.00
2018-01-08T09:38:44.582Z,17.37
2018-01-08T09:39:49.524Z,19.65
2018-01-08T09:40:53.729Z,18.00
2018-01-08T09:41:57.939Z,17.30
2018-01-08T09:43:03.697Z,20.88
2018-01-08T09:44:08.248Z,16.98
2018-01-08T09:45:12.742Z,18.30
2018-01-08T09:46:16.928Z,20.25
2018-01-08T09:47:21.971Z,14.13
2018-01-08T09:48:26.169Z,18.05
2018-01-08T09:49:32.500Z,15.50
2018-01-08T09:50:37.440Z,16.30
2018-01-08T09:51:43.229Z,19.02
2018-01-08T09:52:47.538Z,15.90
2018-01-08T09:53:51.809Z,13.98
2018-01-08T09:54:57.541Z,14.65
2018-01-08T09:56:02.302Z,13.15
2018-01-08T09:57:06.901Z,13.60
2018-01-08T09:58:12.178Z,11.68
2018-01-08T09:59:16.475Z,14.60
2018-01-08T10:00:20.722Z,13.02
2018-01-08T10:01:25.096Z,13.98
2018-01-08T10:02:28.528Z,18.62
2018-01-08T10:03:51.535Z,13.80
2018-01-08T10:05:14.396Z,17.42
2018-01-08T10:06:36.442Z,14.52
2018-01-08T10:07:58.675Z,15.07
2018-01-08T10:09:21.904Z,11.98
2018-01-08T10:10:44.725Z,14.45
2018-01-08T10:12:07.014Z,14.98
2018-01-08T10:13:29.150Z,16.20
2018-01-08T10:14:51.466Z,15.27
2018-01-08T10:16:14.318Z,11.00
2018-01-08T10:17:36.983Z,13.45
2018-01-08T10:18:40.628Z,14.98
2018-01-08T10:20:01.694Z,13.05
2018-01-08T10:21:06.420Z,14.00
2018-01-08T10:22:11.247Z,18.40
2018-01-08T10:23:15.512Z,13.48
2018-01-08T10:24:19.716Z,12.48
2018-01-08T10:25:24.755Z,14.00
2018-01-08T10:26:30.093Z,15.68
2018-01-08T10:27:36.291Z,13.70
2018-01-08T10:28:40.873Z,14.68
2018-01-08T10:29:45.298Z,13.82
2018-01-08T10:30:50.296Z,14.55
2018-01-08T10:31:54.595Z,14.07
2018-01-08T10:32:58.859Z,12.65
2018-01-08T10:34:04.593Z,18.98
2018-01-08T10:35:09.036Z,12.02
2018-01-08T10:36:13.545Z,14.10
2018-01-08T10:37:17.778Z,13.10
2018-01-08T10:38:22.106Z,15.68
2018-01-08T10:39:26.416Z,14.87
2018-01-08T10:40:31.554Z,12.15
2018-01-08T10:41:41.446Z,15.10
2018-01-08T10:42:51.188Z,15.45
2018-01-08T10:44:01.554Z,25.90
2018-01-08T10:45:11.686Z,9.05
2018-01-08T10:46:22.137Z,11.95
2018-01-08T10:47:33.369Z,14.30
2018-01-08T10:48:45.067Z,13.27
2018-01-08T10:49:54.711Z,12.57
2018-01-08T10:51:04.617Z,12.07
2018-01-08T10:52:08.417Z,10.70
2018-01-08T10:53:13.135Z,20.05
2018-01-08T10:54:17.401Z,13.05
2018-01-08T10:55:21.865Z,12.32
2018-01-08T10:56:26.379Z,15.93
2018-01-08T10:57:31.422Z,11.90
2018-01-08T10:58:36.837Z,16.62
2018-01-08T10:59:41.098Z,15.35
2018-01-08T11:00:45.393Z,12.57
2018-01-08T11:01:55.138Z,15.02
2018-01-08T11:03:04.865Z,15.13
2018-01-08T11:04:09.214Z,19.02
2018-01-08T11:05:15.017Z,13.80
2018-01-08T11:06:19.287Z,12.30
2018-01-08T11:07:23.553Z,12.77
2018-01-08T11:08:27.796Z,21.45
2018-01-08T11:09:32.784Z,17.05
2018-01-08T11:10:37.465Z,15.70
2018-01-08T11:11:41.666Z,13.23
2018-01-08T11:12:46.126Z,15.07
2018-01-08T11:13:50.365Z,14.25
2018-01-08T11:14:54.594Z,15.77
2018-01-08T11:15:58.842Z,15.95
2018-01-08T11:17:04.242Z,15.47
2018-01-08T11:18:08.666Z,13.45
2018-01-08T11:19:12.930Z,14.13
2018-01-08T11:20:17.169Z,14.18
2018-01-08T11:21:21.428Z,15.10
2018-01-08T11:22:26.415Z,14.90
2018-01-08T11:23:31.930Z,15.48
2018-01-08T11:24:36.517Z,14.93
2018-01-08T11:25:40.947Z,10.45
2018-01-08T11:26:45.193Z,13.30
2018-01-08T11:27:49.482Z,14.55
2018-01-08T11:28:53.779Z,15.82
2018-01-08T11:29:58.019Z,14.93
2018-01-08T11:31:02.690Z,14.40
2018-01-08T11:32:07.003Z,15.77
2018-01-08T11:33:12.122Z,16.30
2018-01-08T11:34:16.343Z,15.35
2018-01-08T11:35:20.582Z,18.05
2018-01-08T11:36:25.188Z,16.40
2018-01-08T11:37:30.523Z,21.50
2018-01-08T11:38:35.716Z,16.52
2018-01-08T11:39:40.114Z,15.00
2018-01-08T11:40:44.404Z,13.43
2018-01-08T11:41:48.627Z,22.60
2018-01-08T11:42:52.887Z,12.37
2018-01-08T11:43:57.181Z,16.20
2018-01-08T11:45:01.759Z,15.80
2018-01-08T11:46:06.639Z,13.43
2018-01-08T11:47:11.714Z,16.98
2018-01-08T11:48:15.983Z,19.62
2018-01-08T11:49:20.271Z,14.95
2018-01-08T11:50:24.487Z,12.35
2018-01-08T11:51:28.748Z,13.10
2018-01-08T11:52:33.440Z,15.98
2018-01-08T11:53:38.527Z,16.12
2018-01-08T11:54:43.000Z,18.75
2018-01-08T11:55:47.336Z,18.55
2018-01-08T11:56:51.590Z,11.82
2018-01-08T11:57:55.937Z,12.50
2018-01-08T11:59:00.890Z,19.48
2018-01-08T12:00:06.673Z,18.75
2018-01-08T12:01:13.355Z,17.00
2018-01-08T12:02:17.615Z,22.13
2018-01-08T12:03:22.626Z,14.80
2018-01-08T12:04:26.898Z,16.08
2018-01-08T12:05:32.113Z,18.35
2018-01-08T12:06:36.978Z,18.95
2018-01-08T12:07:41.384Z,13.57
2018-01-08T12:08:46.589Z,18.50
2018-01-08T12:09:50.857Z,19.83
2018-01-08T12:10:55.099Z,13.93
2018-01-08T12:11:59.733Z,13.82
2018-01-08T12:13:05.570Z,13.68
2018-01-08T12:14:09.993Z,14.32
2018-01-08T12:15:14.496Z,19.75
2018-01-08T12:16:18.778Z,20.73
2018-01-08T12:17:23.094Z,17.00
2018-01-08T12:18:27.370Z,19.27
2018-01-08T12:19:31.936Z,13.38
2018-01-08T12:20:36.427Z,21.70
2018-01-08T12:21:41.518Z,17.20
2018-01-08T12:22:45.764Z,14.57
2018-01-08T12:23:50.023Z,11.45
2018-01-08T12:24:54.271Z,16.15
2018-01-08T12:25:58.518Z,13.10
2018-01-08T12:27:03.352Z,16.62
2018-01-08T12:28:07.794Z,12.20
2018-01-08T12:29:12.125Z,14.60
2018-01-08T12:30:16.747Z,15.38
2018-01-08T12:31:21.032Z,13.73
2018-01-08T12:32:25.362Z,11.82
2018-01-08T12:33:29.656Z,20.60
2018-01-08T12:34:35.018Z,15.10
2018-01-08T12:35:39.371Z,14.85
2018-01-08T12:36:43.706Z,15.52
2018-01-08T12:37:47.958Z,15.20
2018-01-08T12:38:52.187Z,23.30
2018-01-08T12:39:56.447Z,13.20
2018-01-08T12:41:01.936Z,14.55
2018-01-08T12:42:06.615Z,16.02
2018-01-08T12:43:11.134Z,17.67
2018-01-08T12:44:15.366Z,13.82
2018-01-08T12:45:19.584Z,13.57
2018-01-08T12:46:23.897Z,15.70
2018-01-08T12:47:28.110Z,19.77
2018-01-08T12:48:32.571Z,15.60
2018-01-08T12:49:36.880Z,14.50
2018-01-08T12:50:41.068Z,19.47
2018-01-08T12:51:45.354Z,16.60
2018-01-08T12:52:49.567Z,15.98
2018-01-08T12:53:53.780Z,16.62
2018-01-08T12:54:58.008Z,18.85
2018-01-08T12:56:02.787Z,13.90
2018-01-08T12:57:07.248Z,16.58
2018-01-08T12:58:11.487Z,15.35
2018-01-08T12:59:15.856Z,14.77
2018-01-08T13:00:20.107Z,12.90
2018-01-08T13:01:24.373Z,17.23
2018-01-08T13:02:28.645Z,17.62
2018-01-08T13:03:33.309Z,15.48
2018-01-08T13:04:37.929Z,17.25
2018-01-08T13:05:42.306Z,16.33
2018-01-08T13:06:46.532Z,12.43
2018-01-08T13:07:51.586Z,17.35
2018-01-08T13:08:55.861Z,15.07
2018-01-08T13:10:01.335Z,14.98
2018-01-08T13:11:05.989Z,19.05
2018-01-08T13:12:10.491Z,13.40
2018-01-08T13:13:15.578Z,16.83
2018-01-08T13:14:20.571Z,15.50
2018-01-08T13:15:24.757Z,16.27
2018-01-08T13:16:28.966Z,15.85
2018-01-08T13:17:33.999Z,14.63
2018-01-08T13:18:39.312Z,15.40
2018-01-08T13:19:43.650Z,15.87
2018-01-08T13:20:48.050Z,10.45
2018-01-08T13:21:52.241Z,23.07
2018-01-08T13:22:57.209Z,11.38
2018-01-08T13:24:01.627Z,18.83
2018-01-08T13:25:06.610Z,10.55
2018-01-08T13:26:11.627Z,16.60
2018-01-08T13:27:15.978Z,16.23
2018-01-08T13:28:20.246Z,16.87
2018-01-08T13:29:25.971Z,17.83
2018-01-08T13:30:30.333Z,12.30
2018-01-08T13:31:35.144Z,16.90
2018-01-08T13:32:40.306Z,16.23
2018-01-08T13:33:44.554Z,16.85
2018-01-08T13:34:48.821Z,17.27
2018-01-08T13:35:53.085Z,13.75
2018-01-08T13:36:57.340Z,10.68
2018-01-08T13:38:02.581Z,15.97
2018-01-08T13:39:06.859Z,14.80
2018-01-08T13:40:11.087Z,12.33
2018-01-08T13:41:16.126Z,13.40
2018-01-08T13:42:20.359Z,14.02
2018-01-08T13:43:24.646Z,16.15
2018-01-08T13:44:30.197Z,12.50
2018-01-08T13:45:34.595Z,15.40
2018-01-08T13:46:39.865Z,14.47
2018-01-08T13:47:44.137Z,19.95
2018-01-08T13:48:48.401Z,13.53
2018-01-08T13:49:52.667Z,15.63
2018-01-08T13:50:56.966Z,16.55
2018-01-08T13:52:02.161Z,14.80
2018-01-08T13:53:07.376Z,15.82
2018-01-08T13:54:12.174Z,11.35
2018-01-08T13:55:17.202Z,19.20
2018-01-08T13:56:22.313Z,16.45
2018-01-08T13:57:26.684Z,15.73
2018-01-08T13:58:32.240Z,20.15
2018-01-08T13:59:36.600Z,16.77
2018-01-08T14:00:41.703Z,11.18
2018-01-08T14:01:45.977Z,14.30
2018-01-08T14:02:50.390Z,11.00
2018-01-08T14:03:54.646Z,13.30